sensor_id;sensor_type;location;lat;lon;timestamp;pressure;altitude;pressure_sealevel;temperature;humidity
65013;BME280;51715;39.432;-77.518;2023-07-16T00:02:08;99054.84;;;33.10;38.81
65013;BME280;51715;39.432;-77.518;2023-07-16T00:04:36;99048.52;;;33.40;38.63
65013;BME280;51715;39.432;-77.518;2023-07-16T00:07:04;99052.06;;;33.44;38.31
65013;BME280;51715;39.432;-77.518;2023-07-16T00:09:33;99052.78;;;33.16;38.32
65013;BME280;51715;39.432;-77.518;2023-07-16T00:12:01;99057.65;;;33.42;38.79
65013;BME280;51715;39.432;-77.518;2023-07-16T00:14:29;99066.09;;;33.04;39.07
65013;BME280;51715;39.432;-77.518;2023-07-16T00:16:58;99068.81;;;33.19;39.21
65013;BME280;51715;39.432;-77.518;2023-07-16T00:19:26;99059.40;;;33.28;38.32
65013;BME280;51715;39.432;-77.518;2023-07-16T00:21:55;99058.87;;;33.36;38.51
65013;BME280;51715;39.432;-77.518;2023-07-16T00:24:23;99059.61;;;33.26;38.66
65013;BME280;51715;39.432;-77.518;2023-07-16T00:26:50;99054.29;;;32.98;38.61
65013;BME280;51715;39.432;-77.518;2023-07-16T00:29:19;99057.42;;;33.22;38.73
65013;BME280;51715;39.432;-77.518;2023-07-16T00:31:48;99059.10;;;33.33;38.49
65013;BME280;51715;39.432;-77.518;2023-07-16T00:34:16;99058.06;;;33.45;38.21
65013;BME280;51715;39.432;-77.518;2023-07-16T00:36:44;99054.22;;;33.05;39.49
65013;BME280;51715;39.432;-77.518;2023-07-16T00:39:12;99048.42;;;32.76;38.77
65013;BME280;51715;39.432;-77.518;2023-07-16T00:41:40;99048.32;;;33.23;38.97
65013;BME280;51715;39.432;-77.518;2023-07-16T00:44:09;99046.16;;;33.13;38.89
65013;BME280;51715;39.432;-77.518;2023-07-16T00:46:37;99049.15;;;33.24;39.21
65013;BME280;51715;39.432;-77.518;2023-07-16T00:49:05;99047.64;;;33.37;38.39
65013;BME280;51715;39.432;-77.518;2023-07-16T00:51:35;99048.25;;;33.62;38.93
65013;BME280;51715;39.432;-77.518;2023-07-16T00:54:03;99045.22;;;33.22;38.85
65013;BME280;51715;39.432;-77.518;2023-07-16T00:56:31;99042.60;;;33.20;39.42
65013;BME280;51715;39.432;-77.518;2023-07-16T00:58:59;99041.59;;;33.01;40.07
65013;BME280;51715;39.432;-77.518;2023-07-16T01:01:28;99039.61;;;32.73;40.76
65013;BME280;51715;39.432;-77.518;2023-07-16T01:03:56;99036.61;;;33.05;41.33
65013;BME280;51715;39.432;-77.518;2023-07-16T01:06:29;99037.05;;;32.41;41.37
65013;BME280;51715;39.432;-77.518;2023-07-16T01:09:07;99037.30;;;32.69;41.11
65013;BME280;51715;39.432;-77.518;2023-07-16T01:11:37;99037.43;;;32.97;41.58
65013;BME280;51715;39.432;-77.518;2023-07-16T01:14:08;99040.05;;;32.69;41.55
65013;BME280;51715;39.432;-77.518;2023-07-16T01:16:43;99044.04;;;32.66;41.81
65013;BME280;51715;39.432;-77.518;2023-07-16T01:19:12;99049.27;;;32.33;42.18
65013;BME280;51715;39.432;-77.518;2023-07-16T01:21:47;99054.46;;;32.70;42.00
65013;BME280;51715;39.432;-77.518;2023-07-16T01:24:37;99062.20;;;32.33;42.11
65013;BME280;51715;39.432;-77.518;2023-07-16T01:27:22;99062.14;;;32.53;42.57
65013;BME280;51715;39.432;-77.518;2023-07-16T01:29:57;99060.94;;;32.33;42.30
65013;BME280;51715;39.432;-77.518;2023-07-16T01:32:31;99062.50;;;32.42;42.32
65013;BME280;51715;39.432;-77.518;2023-07-16T01:35:00;99064.44;;;32.21;42.82
65013;BME280;51715;39.432;-77.518;2023-07-16T01:37:29;99066.15;;;32.28;42.49
65013;BME280;51715;39.432;-77.518;2023-07-16T01:39:58;99061.44;;;32.40;42.37
65013;BME280;51715;39.432;-77.518;2023-07-16T01:42:26;99061.23;;;32.24;41.99
65013;BME280;51715;39.432;-77.518;2023-07-16T01:44:55;99070.18;;;32.75;41.95
65013;BME280;51715;39.432;-77.518;2023-07-16T01:47:32;99078.44;;;32.53;41.82
65013;BME280;51715;39.432;-77.518;2023-07-16T01:50:01;99086.49;;;32.34;41.53
65013;BME280;51715;39.432;-77.518;2023-07-16T01:52:30;99082.58;;;32.36;41.27
65013;BME280;51715;39.432;-77.518;2023-07-16T01:54:58;99079.40;;;32.31;41.95
65013;BME280;51715;39.432;-77.518;2023-07-16T01:57:27;99080.51;;;32.22;42.38
65013;BME280;51715;39.432;-77.518;2023-07-16T01:59:55;99081.18;;;32.33;42.08
65013;BME280;51715;39.432;-77.518;2023-07-16T02:02:24;99082.65;;;32.12;41.82
65013;BME280;51715;39.432;-77.518;2023-07-16T02:04:52;99084.51;;;32.40;41.98
65013;BME280;51715;39.432;-77.518;2023-07-16T02:07:20;99088.05;;;32.37;42.01
65013;BME280;51715;39.432;-77.518;2023-07-16T02:09:48;99095.15;;;32.14;41.82
65013;BME280;51715;39.432;-77.518;2023-07-16T02:12:16;99098.20;;;32.18;41.62
65013;BME280;51715;39.432;-77.518;2023-07-16T02:14:44;99103.57;;;32.27;41.37
65013;BME280;51715;39.432;-77.518;2023-07-16T02:17:12;99106.59;;;32.32;41.31
65013;BME280;51715;39.432;-77.518;2023-07-16T02:19:40;99107.84;;;32.33;41.73
65013;BME280;51715;39.432;-77.518;2023-07-16T02:22:08;99102.39;;;32.57;41.52
65013;BME280;51715;39.432;-77.518;2023-07-16T02:24:37;99103.43;;;32.57;41.50
65013;BME280;51715;39.432;-77.518;2023-07-16T02:27:05;99106.88;;;32.49;41.86
65013;BME280;51715;39.432;-77.518;2023-07-16T02:29:34;99109.63;;;32.51;41.79
65013;BME280;51715;39.432;-77.518;2023-07-16T02:32:02;99110.66;;;32.24;41.86
65013;BME280;51715;39.432;-77.518;2023-07-16T02:34:31;99114.03;;;32.25;41.72
65013;BME280;51715;39.432;-77.518;2023-07-16T02:37:00;99118.04;;;32.21;42.02
65013;BME280;51715;39.432;-77.518;2023-07-16T02:39:27;99120.40;;;32.47;41.97
65013;BME280;51715;39.432;-77.518;2023-07-16T02:41:55;99130.10;;;32.38;42.04
65013;BME280;51715;39.432;-77.518;2023-07-16T02:44:23;99139.14;;;32.35;41.95
65013;BME280;51715;39.432;-77.518;2023-07-16T02:46:52;99146.32;;;32.32;41.71
65013;BME280;51715;39.432;-77.518;2023-07-16T02:49:20;99149.57;;;32.44;41.50
65013;BME280;51715;39.432;-77.518;2023-07-16T02:51:48;99150.94;;;32.19;41.40
65013;BME280;51715;39.432;-77.518;2023-07-16T02:54:16;99149.60;;;32.44;41.24
65013;BME280;51715;39.432;-77.518;2023-07-16T02:56:44;99153.51;;;32.10;42.32
65013;BME280;51715;39.432;-77.518;2023-07-16T02:59:13;99148.39;;;31.65;41.39
65013;BME280;51715;39.432;-77.518;2023-07-16T03:01:41;99187.00;;;31.60;41.10
65013;BME280;51715;39.432;-77.518;2023-07-16T03:04:09;99206.19;;;31.13;40.57
65013;BME280;51715;39.432;-77.518;2023-07-16T03:06:38;99212.95;;;30.91;39.55
65013;BME280;51715;39.432;-77.518;2023-07-16T03:09:06;99203.49;;;30.50;40.63
65013;BME280;51715;39.432;-77.518;2023-07-16T03:11:34;99197.36;;;29.87;41.86
65013;BME280;51715;39.432;-77.518;2023-07-16T03:14:02;99186.69;;;29.57;43.17
65013;BME280;51715;39.432;-77.518;2023-07-16T03:16:31;99175.99;;;29.19;44.14
65013;BME280;51715;39.432;-77.518;2023-07-16T03:18:58;99159.75;;;29.18;44.78
65013;BME280;51715;39.432;-77.518;2023-07-16T03:21:27;99149.69;;;29.12;45.24
65013;BME280;51715;39.432;-77.518;2023-07-16T03:23:55;99141.17;;;28.69;46.38
65013;BME280;51715;39.432;-77.518;2023-07-16T03:26:25;99135.80;;;28.62;46.79
65013;BME280;51715;39.432;-77.518;2023-07-16T03:28:54;99128.92;;;28.59;46.58
65013;BME280;51715;39.432;-77.518;2023-07-16T03:31:22;99122.47;;;28.49;46.46
65013;BME280;51715;39.432;-77.518;2023-07-16T03:33:51;99112.11;;;28.55;46.57
65013;BME280;51715;39.432;-77.518;2023-07-16T03:36:20;99103.78;;;28.48;46.69
65013;BME280;51715;39.432;-77.518;2023-07-16T03:38:48;99091.93;;;28.21;46.57
65013;BME280;51715;39.432;-77.518;2023-07-16T03:41:17;99085.78;;;28.10;46.62
65013;BME280;51715;39.432;-77.518;2023-07-16T03:43:46;99078.25;;;28.11;46.67
65013;BME280;51715;39.432;-77.518;2023-07-16T03:46:15;99068.26;;;28.34;46.60
65013;BME280;51715;39.432;-77.518;2023-07-16T03:48:42;99065.45;;;28.28;46.48
65013;BME280;51715;39.432;-77.518;2023-07-16T03:51:11;99069.92;;;28.01;47.23
65013;BME280;51715;39.432;-77.518;2023-07-16T03:53:40;99070.18;;;28.11;47.22
65013;BME280;51715;39.432;-77.518;2023-07-16T03:56:08;99073.46;;;28.00;46.83
65013;BME280;51715;39.432;-77.518;2023-07-16T03:58:36;99064.58;;;28.26;47.03
65013;BME280;51715;39.432;-77.518;2023-07-16T04:04:01;99061.99;;;28.46;45.67
65013;BME280;51715;39.432;-77.518;2023-07-16T04:06:29;99060.37;;;28.53;45.83
65013;BME280;51715;39.432;-77.518;2023-07-16T04:08:57;99053.33;;;28.37;45.76
65013;BME280;51715;39.432;-77.518;2023-07-16T04:11:26;99050.30;;;28.64;45.68
65013;BME280;51715;39.432;-77.518;2023-07-16T04:13:55;99051.46;;;28.98;45.94
65013;BME280;51715;39.432;-77.518;2023-07-16T04:16:22;99052.33;;;28.78;46.34
65013;BME280;51715;39.432;-77.518;2023-07-16T04:18:50;99054.89;;;28.56;46.64
65013;BME280;51715;39.432;-77.518;2023-07-16T04:21:18;99053.85;;;28.49;46.88
65013;BME280;51715;39.432;-77.518;2023-07-16T04:23:46;99056.29;;;28.76;46.85
65013;BME280;51715;39.432;-77.518;2023-07-16T04:26:14;99056.59;;;28.53;46.64
65013;BME280;51715;39.432;-77.518;2023-07-16T04:28:42;99057.93;;;28.51;46.69
65013;BME280;51715;39.432;-77.518;2023-07-16T04:31:11;99058.62;;;28.21;46.64
65013;BME280;51715;39.432;-77.518;2023-07-16T04:33:39;99058.23;;;28.51;46.68
65013;BME280;51715;39.432;-77.518;2023-07-16T04:36:08;99060.69;;;28.28;46.45
65013;BME280;51715;39.432;-77.518;2023-07-16T04:38:36;99064.84;;;28.77;46.45
65013;BME280;51715;39.432;-77.518;2023-07-16T04:41:04;99065.71;;;28.62;46.30
65013;BME280;51715;39.432;-77.518;2023-07-16T04:43:33;99069.17;;;28.66;46.33
65013;BME280;51715;39.432;-77.518;2023-07-16T04:46:02;99071.65;;;28.71;46.20
65013;BME280;51715;39.432;-77.518;2023-07-16T04:48:30;99073.28;;;28.33;46.57
65013;BME280;51715;39.432;-77.518;2023-07-16T04:50:58;99070.18;;;28.45;46.35
65013;BME280;51715;39.432;-77.518;2023-07-16T04:53:26;99076.30;;;28.50;46.26
65013;BME280;51715;39.432;-77.518;2023-07-16T04:55:53;99074.97;;;28.34;46.48
65013;BME280;51715;39.432;-77.518;2023-07-16T04:58:22;99069.51;;;28.30;46.45
65013;BME280;51715;39.432;-77.518;2023-07-16T05:00:50;99067.50;;;28.32;46.54
65013;BME280;51715;39.432;-77.518;2023-07-16T05:03:18;99064.38;;;28.25;46.53
65013;BME280;51715;39.432;-77.518;2023-07-16T05:05:47;99065.19;;;28.19;45.89
65013;BME280;51715;39.432;-77.518;2023-07-16T05:08:15;99068.92;;;28.23;46.40
65013;BME280;51715;39.432;-77.518;2023-07-16T05:10:43;99065.69;;;28.18;46.18
65013;BME280;51715;39.432;-77.518;2023-07-16T05:13:12;99062.81;;;28.47;45.78
65013;BME280;51715;39.432;-77.518;2023-07-16T05:15:40;99069.46;;;28.50;45.71
65013;BME280;51715;39.432;-77.518;2023-07-16T05:18:08;99071.68;;;28.33;45.80
65013;BME280;51715;39.432;-77.518;2023-07-16T05:20:36;99073.63;;;28.17;45.77
65013;BME280;51715;39.432;-77.518;2023-07-16T05:23:05;99072.26;;;28.62;45.79
65013;BME280;51715;39.432;-77.518;2023-07-16T05:25:33;99070.28;;;28.25;45.69
65013;BME280;51715;39.432;-77.518;2023-07-16T05:28:02;99071.85;;;28.44;45.65
65013;BME280;51715;39.432;-77.518;2023-07-16T05:30:30;99069.88;;;28.31;45.60
65013;BME280;51715;39.432;-77.518;2023-07-16T05:32:58;99078.64;;;28.48;45.69
65013;BME280;51715;39.432;-77.518;2023-07-16T05:35:27;99077.52;;;28.42;45.72
65013;BME280;51715;39.432;-77.518;2023-07-16T05:37:55;99067.78;;;28.47;45.78
65013;BME280;51715;39.432;-77.518;2023-07-16T05:40:24;99071.72;;;28.23;46.07
65013;BME280;51715;39.432;-77.518;2023-07-16T05:42:52;99068.38;;;28.39;46.04
65013;BME280;51715;39.432;-77.518;2023-07-16T05:45:21;99062.97;;;28.13;46.14
65013;BME280;51715;39.432;-77.518;2023-07-16T05:47:49;99066.21;;;28.30;46.37
65013;BME280;51715;39.432;-77.518;2023-07-16T05:50:17;99067.66;;;27.96;46.40
65013;BME280;51715;39.432;-77.518;2023-07-16T05:52:46;99063.50;;;28.15;46.43
65013;BME280;51715;39.432;-77.518;2023-07-16T05:55:14;99065.79;;;28.17;46.62
65013;BME280;51715;39.432;-77.518;2023-07-16T05:57:44;99064.24;;;28.08;46.73
65013;BME280;51715;39.432;-77.518;2023-07-16T06:00:13;99061.72;;;28.22;46.93
65013;BME280;51715;39.432;-77.518;2023-07-16T06:02:42;99054.19;;;28.02;46.85
65013;BME280;51715;39.432;-77.518;2023-07-16T06:05:11;99061.12;;;28.05;46.87
65013;BME280;51715;39.432;-77.518;2023-07-16T06:07:39;99062.54;;;27.89;46.71
65013;BME280;51715;39.432;-77.518;2023-07-16T06:10:08;99060.20;;;28.08;46.79
65013;BME280;51715;39.432;-77.518;2023-07-16T06:12:37;99053.33;;;27.75;47.44
65013;BME280;51715;39.432;-77.518;2023-07-16T06:15:05;99051.50;;;27.71;47.07
65013;BME280;51715;39.432;-77.518;2023-07-16T06:17:33;99046.94;;;27.91;47.10
65013;BME280;51715;39.432;-77.518;2023-07-16T06:20:02;99036.81;;;27.97;46.94
65013;BME280;51715;39.432;-77.518;2023-07-16T06:22:31;99030.99;;;27.96;46.98
65013;BME280;51715;39.432;-77.518;2023-07-16T06:24:59;99021.65;;;28.02;46.84
65013;BME280;51715;39.432;-77.518;2023-07-16T06:27:28;99010.78;;;28.00;46.88
65013;BME280;51715;39.432;-77.518;2023-07-16T06:29:56;99002.26;;;28.07;46.81
65013;BME280;51715;39.432;-77.518;2023-07-16T06:32:25;98998.46;;;28.00;46.86
65013;BME280;51715;39.432;-77.518;2023-07-16T06:34:54;98995.01;;;28.01;46.66
65013;BME280;51715;39.432;-77.518;2023-07-16T06:37:22;98990.20;;;28.35;46.61
65013;BME280;51715;39.432;-77.518;2023-07-16T06:39:51;98992.33;;;28.37;46.64
65013;BME280;51715;39.432;-77.518;2023-07-16T06:42:19;98992.23;;;27.91;46.70
65013;BME280;51715;39.432;-77.518;2023-07-16T06:44:47;98990.20;;;28.03;46.48
65013;BME280;51715;39.432;-77.518;2023-07-16T06:47:15;98989.90;;;28.27;46.44
65013;BME280;51715;39.432;-77.518;2023-07-16T06:49:43;98985.28;;;27.95;46.61
65013;BME280;51715;39.432;-77.518;2023-07-16T06:52:19;98983.22;;;28.03;46.63
65013;BME280;51715;39.432;-77.518;2023-07-16T06:54:48;98973.33;;;28.09;46.20
65013;BME280;51715;39.432;-77.518;2023-07-16T06:57:16;98962.23;;;28.07;46.20
65013;BME280;51715;39.432;-77.518;2023-07-16T06:59:44;98965.91;;;28.32;46.35
65013;BME280;51715;39.432;-77.518;2023-07-16T07:02:15;98967.41;;;28.09;46.46
65013;BME280;51715;39.432;-77.518;2023-07-16T07:04:43;98962.36;;;28.12;46.30
65013;BME280;51715;39.432;-77.518;2023-07-16T07:07:11;98960.95;;;28.27;46.38
65013;BME280;51715;39.432;-77.518;2023-07-16T07:09:40;98954.11;;;28.05;46.54
65013;BME280;51715;39.432;-77.518;2023-07-16T07:12:09;98950.16;;;28.33;46.39
65013;BME280;51715;39.432;-77.518;2023-07-16T07:14:37;98940.13;;;28.13;46.37
65013;BME280;51715;39.432;-77.518;2023-07-16T07:17:05;98933.86;;;28.63;46.26
65013;BME280;51715;39.432;-77.518;2023-07-16T07:19:33;98930.53;;;28.30;46.40
65013;BME280;51715;39.432;-77.518;2023-07-16T07:22:01;98922.14;;;28.36;46.18
65013;BME280;51715;39.432;-77.518;2023-07-16T07:24:30;98917.57;;;27.83;47.18
65013;BME280;51715;39.432;-77.518;2023-07-16T07:26:58;98920.39;;;28.08;46.71
65013;BME280;51715;39.432;-77.518;2023-07-16T07:29:26;98910.24;;;28.22;46.61
65013;BME280;51715;39.432;-77.518;2023-07-16T07:31:55;98909.63;;;28.09;46.40
65013;BME280;51715;39.432;-77.518;2023-07-16T07:34:24;98903.27;;;28.32;46.35
65013;BME280;51715;39.432;-77.518;2023-07-16T07:36:52;98904.94;;;28.32;46.29
65013;BME280;51715;39.432;-77.518;2023-07-16T07:39:21;98902.21;;;28.31;46.47
65013;BME280;51715;39.432;-77.518;2023-07-16T07:41:49;98892.47;;;28.11;46.38
65013;BME280;51715;39.432;-77.518;2023-07-16T07:44:17;98882.51;;;28.39;46.39
65013;BME280;51715;39.432;-77.518;2023-07-16T07:46:45;98876.87;;;28.18;46.27
65013;BME280;51715;39.432;-77.518;2023-07-16T07:49:14;98877.04;;;28.32;46.28
65013;BME280;51715;39.432;-77.518;2023-07-16T07:51:42;98882.83;;;28.24;46.46
65013;BME280;51715;39.432;-77.518;2023-07-16T07:54:10;98887.95;;;27.91;46.97
65013;BME280;51715;39.432;-77.518;2023-07-16T07:56:39;98890.29;;;28.25;46.94
65013;BME280;51715;39.432;-77.518;2023-07-16T07:59:06;98891.48;;;28.10;46.71
65013;BME280;51715;39.432;-77.518;2023-07-16T08:01:35;98901.04;;;28.20;46.53
65013;BME280;51715;39.432;-77.518;2023-07-16T08:04:04;98897.83;;;28.28;46.25
65013;BME280;51715;39.432;-77.518;2023-07-16T08:06:32;98890.03;;;28.29;46.18
65013;BME280;51715;39.432;-77.518;2023-07-16T08:09:01;98889.17;;;28.13;46.22
65013;BME280;51715;39.432;-77.518;2023-07-16T08:11:29;98891.52;;;28.16;46.16
65013;BME280;51715;39.432;-77.518;2023-07-16T08:13:57;98894.95;;;28.39;46.12
65013;BME280;51715;39.432;-77.518;2023-07-16T08:16:25;98897.43;;;28.31;46.23
65013;BME280;51715;39.432;-77.518;2023-07-16T08:18:54;98890.94;;;28.35;46.18
65013;BME280;51715;39.432;-77.518;2023-07-16T08:21:23;98882.45;;;28.37;46.10
65013;BME280;51715;39.432;-77.518;2023-07-16T08:23:51;98876.17;;;28.19;46.05
65013;BME280;51715;39.432;-77.518;2023-07-16T08:26:19;98877.66;;;28.46;45.88
65013;BME280;51715;39.432;-77.518;2023-07-16T08:28:48;98879.97;;;28.20;45.86
65013;BME280;51715;39.432;-77.518;2023-07-16T08:31:16;98879.24;;;28.26;46.26
65013;BME280;51715;39.432;-77.518;2023-07-16T08:33:45;98877.45;;;28.29;46.26
65013;BME280;51715;39.432;-77.518;2023-07-16T08:36:13;98877.60;;;28.34;46.28
65013;BME280;51715;39.432;-77.518;2023-07-16T08:38:41;98877.86;;;28.63;46.08
65013;BME280;51715;39.432;-77.518;2023-07-16T08:41:10;98875.91;;;28.30;46.00
65013;BME280;51715;39.432;-77.518;2023-07-16T08:43:39;98871.99;;;28.23;46.27
65013;BME280;51715;39.432;-77.518;2023-07-16T08:46:08;98873.01;;;28.25;46.31
65013;BME280;51715;39.432;-77.518;2023-07-16T08:48:36;98877.43;;;28.25;46.34
65013;BME280;51715;39.432;-77.518;2023-07-16T08:51:05;98882.28;;;28.27;46.40
65013;BME280;51715;39.432;-77.518;2023-07-16T08:53:34;98882.01;;;28.31;46.14
65013;BME280;51715;39.432;-77.518;2023-07-16T08:56:02;98879.56;;;28.62;45.93
65013;BME280;51715;39.432;-77.518;2023-07-16T08:58:31;98882.38;;;28.44;45.79
65013;BME280;51715;39.432;-77.518;2023-07-16T09:01:00;98886.32;;;28.40;45.92
65013;BME280;51715;39.432;-77.518;2023-07-16T09:03:29;98889.11;;;28.62;46.04
65013;BME280;51715;39.432;-77.518;2023-07-16T09:05:57;98892.25;;;28.36;46.04
65013;BME280;51715;39.432;-77.518;2023-07-16T09:08:25;98892.47;;;28.15;46.01
65013;BME280;51715;39.432;-77.518;2023-07-16T09:10:54;98901.10;;;28.14;45.97
65013;BME280;51715;39.432;-77.518;2023-07-16T09:13:23;98905.23;;;28.36;45.93
65013;BME280;51715;39.432;-77.518;2023-07-16T09:15:52;98902.30;;;28.15;45.90
65013;BME280;51715;39.432;-77.518;2023-07-16T09:18:20;98904.55;;;28.18;45.74
65013;BME280;51715;39.432;-77.518;2023-07-16T09:20:49;98906.98;;;28.20;45.57
65013;BME280;51715;39.432;-77.518;2023-07-16T09:23:24;98910.04;;;28.18;45.48
65013;BME280;51715;39.432;-77.518;2023-07-16T09:25:53;98914.29;;;28.17;45.72
65013;BME280;51715;39.432;-77.518;2023-07-16T09:28:22;98917.69;;;28.46;45.74
65013;BME280;51715;39.432;-77.518;2023-07-16T09:30:51;98917.03;;;28.25;45.88
65013;BME280;51715;39.432;-77.518;2023-07-16T09:33:20;98914.39;;;28.54;46.04
65013;BME280;51715;39.432;-77.518;2023-07-16T09:35:49;98914.76;;;28.34;45.93
65013;BME280;51715;39.432;-77.518;2023-07-16T09:38:19;98914.73;;;28.38;45.77
65013;BME280;51715;39.432;-77.518;2023-07-16T09:40:47;98914.83;;;28.37;45.88
65013;BME280;51715;39.432;-77.518;2023-07-16T09:43:15;98907.74;;;28.57;46.04
65013;BME280;51715;39.432;-77.518;2023-07-16T09:45:44;98905.95;;;28.35;46.07
65013;BME280;51715;39.432;-77.518;2023-07-16T09:48:14;98905.89;;;28.38;45.84
65013;BME280;51715;39.432;-77.518;2023-07-16T09:50:48;98905.07;;;28.37;45.76
65013;BME280;51715;39.432;-77.518;2023-07-16T09:53:19;98903.73;;;28.39;45.86
65013;BME280;51715;39.432;-77.518;2023-07-16T09:55:48;98904.83;;;28.12;45.67
65013;BME280;51715;39.432;-77.518;2023-07-16T09:58:19;98899.62;;;28.83;45.70
65013;BME280;51715;39.432;-77.518;2023-07-16T10:00:49;98896.78;;;28.26;46.11
65013;BME280;51715;39.432;-77.518;2023-07-16T10:03:17;98899.38;;;28.28;46.23
65013;BME280;51715;39.432;-77.518;2023-07-16T10:05:45;98903.55;;;28.33;46.12
65013;BME280;51715;39.432;-77.518;2023-07-16T10:08:18;98913.29;;;28.17;46.00
65013;BME280;51715;39.432;-77.518;2023-07-16T10:10:48;98915.72;;;28.08;46.13
65013;BME280;51715;39.432;-77.518;2023-07-16T10:13:16;98912.96;;;28.07;46.23
65013;BME280;51715;39.432;-77.518;2023-07-16T10:15:54;98922.25;;;28.60;46.08
65013;BME280;51715;39.432;-77.518;2023-07-16T10:18:25;98927.67;;;28.36;46.01
65013;BME280;51715;39.432;-77.518;2023-07-16T10:20:59;98925.87;;;28.19;45.97
65013;BME280;51715;39.432;-77.518;2023-07-16T10:23:37;98926.90;;;28.25;45.85
65013;BME280;51715;39.432;-77.518;2023-07-16T10:26:06;98933.98;;;28.45;45.92
65013;BME280;51715;39.432;-77.518;2023-07-16T10:28:35;98944.81;;;28.21;45.98
65013;BME280;51715;39.432;-77.518;2023-07-16T10:31:03;98950.90;;;28.44;46.01
65013;BME280;51715;39.432;-77.518;2023-07-16T10:33:32;98952.08;;;28.24;45.94
65013;BME280;51715;39.432;-77.518;2023-07-16T10:36:00;98949.34;;;28.50;45.96
65013;BME280;51715;39.432;-77.518;2023-07-16T10:38:28;98949.79;;;28.30;45.97
65013;BME280;51715;39.432;-77.518;2023-07-16T10:40:58;98950.12;;;28.31;45.96
65013;BME280;51715;39.432;-77.518;2023-07-16T10:43:27;98950.92;;;28.33;45.96
65013;BME280;51715;39.432;-77.518;2023-07-16T10:45:55;98955.81;;;28.37;45.85
65013;BME280;51715;39.432;-77.518;2023-07-16T10:48:25;98964.67;;;28.30;45.97
65013;BME280;51715;39.432;-77.518;2023-07-16T10:50:55;98974.76;;;28.27;46.07
65013;BME280;51715;39.432;-77.518;2023-07-16T10:53:23;98978.90;;;28.52;46.08
65013;BME280;51715;39.432;-77.518;2023-07-16T10:55:51;98977.91;;;28.55;45.95
65013;BME280;51715;39.432;-77.518;2023-07-16T10:58:19;98983.00;;;28.36;46.02
65013;BME280;51715;39.432;-77.518;2023-07-16T11:00:48;98990.18;;;28.38;45.99
65013;BME280;51715;39.432;-77.518;2023-07-16T11:03:16;98994.99;;;28.35;45.80
65013;BME280;51715;39.432;-77.518;2023-07-16T11:05:51;98999.07;;;28.34;45.72
65013;BME280;51715;39.432;-77.518;2023-07-16T11:08:22;99001.66;;;28.38;45.54
65013;BME280;51715;39.432;-77.518;2023-07-16T11:10:55;99004.67;;;28.44;45.44
65013;BME280;51715;39.432;-77.518;2023-07-16T11:13:27;99005.52;;;28.45;45.38
65013;BME280;51715;39.432;-77.518;2023-07-16T11:15:55;99002.56;;;28.54;45.36
65013;BME280;51715;39.432;-77.518;2023-07-16T11:18:23;99000.02;;;28.37;45.48
65013;BME280;51715;39.432;-77.518;2023-07-16T11:20:52;98995.29;;;28.65;45.64
65013;BME280;51715;39.432;-77.518;2023-07-16T11:23:20;98997.68;;;28.62;45.80
65013;BME280;51715;39.432;-77.518;2023-07-16T11:25:49;99000.24;;;28.84;45.87
65013;BME280;51715;39.432;-77.518;2023-07-16T11:28:17;98995.60;;;28.68;45.86
65013;BME280;51715;39.432;-77.518;2023-07-16T11:30:45;98992.77;;;28.67;46.09
65013;BME280;51715;39.432;-77.518;2023-07-16T11:33:14;98999.78;;;28.70;45.83
65013;BME280;51715;39.432;-77.518;2023-07-16T11:35:42;98998.94;;;28.74;45.64
65013;BME280;51715;39.432;-77.518;2023-07-16T11:38:11;99001.80;;;28.71;45.38
65013;BME280;51715;39.432;-77.518;2023-07-16T11:40:39;99004.62;;;28.76;45.65
65013;BME280;51715;39.432;-77.518;2023-07-16T11:43:10;99000.60;;;29.01;45.44
65013;BME280;51715;39.432;-77.518;2023-07-16T11:45:39;98989.30;;;28.82;45.46
65013;BME280;51715;39.432;-77.518;2023-07-16T11:48:08;98984.57;;;28.85;45.75
65013;BME280;51715;39.432;-77.518;2023-07-16T11:50:35;98979.92;;;28.69;45.71
65013;BME280;51715;39.432;-77.518;2023-07-16T11:53:03;98980.42;;;28.65;46.09
65013;BME280;51715;39.432;-77.518;2023-07-16T11:55:32;98983.26;;;28.79;45.69
65013;BME280;51715;39.432;-77.518;2023-07-16T11:58:00;98990.02;;;28.93;45.57
65013;BME280;51715;39.432;-77.518;2023-07-16T12:00:29;98994.29;;;28.99;45.27
65013;BME280;51715;39.432;-77.518;2023-07-16T12:02:57;98994.68;;;29.07;45.02
65013;BME280;51715;39.432;-77.518;2023-07-16T12:05:25;98993.82;;;29.10;44.94
65013;BME280;51715;39.432;-77.518;2023-07-16T12:07:54;98993.29;;;28.83;44.71
65013;BME280;51715;39.432;-77.518;2023-07-16T12:10:22;98995.36;;;29.12;44.95
65013;BME280;51715;39.432;-77.518;2023-07-16T12:12:51;98997.47;;;29.19;45.10
65013;BME280;51715;39.432;-77.518;2023-07-16T12:15:19;98998.36;;;29.22;44.89
65013;BME280;51715;39.432;-77.518;2023-07-16T12:17:48;98999.82;;;29.25;44.65
65013;BME280;51715;39.432;-77.518;2023-07-16T12:20:16;99001.45;;;28.98;45.02
65013;BME280;51715;39.432;-77.518;2023-07-16T12:22:45;99008.34;;;28.99;44.64
65013;BME280;51715;39.432;-77.518;2023-07-16T12:25:13;99010.07;;;29.30;44.68
65013;BME280;51715;39.432;-77.518;2023-07-16T12:27:42;99012.53;;;29.36;44.64
65013;BME280;51715;39.432;-77.518;2023-07-16T12:30:11;99014.75;;;29.16;44.79
65013;BME280;51715;39.432;-77.518;2023-07-16T12:32:45;99011.75;;;29.00;44.71
65013;BME280;51715;39.432;-77.518;2023-07-16T12:35:13;99014.17;;;29.51;44.68
65013;BME280;51715;39.432;-77.518;2023-07-16T12:37:41;99015.22;;;29.04;44.29
65013;BME280;51715;39.432;-77.518;2023-07-16T12:40:10;99010.66;;;29.10;44.28
65013;BME280;51715;39.432;-77.518;2023-07-16T12:42:38;99012.51;;;29.34;44.21
65013;BME280;51715;39.432;-77.518;2023-07-16T12:45:07;99019.37;;;29.35;44.49
65013;BME280;51715;39.432;-77.518;2023-07-16T12:47:35;99018.39;;;29.07;44.27
65013;BME280;51715;39.432;-77.518;2023-07-16T12:50:04;99017.62;;;29.49;44.43
65013;BME280;51715;39.432;-77.518;2023-07-16T12:52:33;99020.59;;;29.52;44.42